createdAt,value
2023-10-26T00:02:29.022Z,4.80
2023-10-26T00:05:03.552Z,4.13
2023-10-26T00:07:36.733Z,3.78
2023-10-26T00:10:10.537Z,3.85
2023-10-26T00:12:43.801Z,4.55
2023-10-26T00:15:16.869Z,3.97
2023-10-26T00:17:50.247Z,3.00
2023-10-26T00:20:25.169Z,3.72
2023-10-26T00:22:58.259Z,3.38
2023-10-26T00:25:31.590Z,7.25
2023-10-26T00:28:04.914Z,3.42
2023-10-26T00:30:38.419Z,3.17
2023-10-26T00:33:12.084Z,3.45
2023-10-26T00:35:46.689Z,3.60
2023-10-26T00:38:20.064Z,3.53
2023-10-26T00:40:53.119Z,4.18
2023-10-26T00:43:26.955Z,3.10
2023-10-26T00:46:00.661Z,4.10
2023-10-26T00:48:34.183Z,4.10
2023-10-26T00:51:08.946Z,4.70
2023-10-26T00:53:45.370Z,3.17
2023-10-26T00:56:20.474Z,4.32
2023-10-26T00:58:54.317Z,3.42
2023-10-26T01:01:29.127Z,3.13
2023-10-26T01:04:04.456Z,3.63
2023-10-26T01:06:38.888Z,3.13
2023-10-26T01:09:14.636Z,3.92
2023-10-26T01:11:48.301Z,4.43
2023-10-26T01:14:21.806Z,4.15
2023-10-26T01:16:55.234Z,4.90
2023-10-26T01:19:41.668Z,3.67
2023-10-26T01:22:16.547Z,3.35
2023-10-26T01:24:49.957Z,3.75
2023-10-26T01:27:23.479Z,3.95
2023-10-26T01:29:56.553Z,3.53
2023-10-26T01:32:29.698Z,4.00
2023-10-26T01:35:03.082Z,3.45
2023-10-26T01:37:40.480Z,4.88
2023-10-26T01:40:14.111Z,3.58
2023-10-26T01:42:47.239Z,4.15
2023-10-26T01:45:20.508Z,4.72
2023-10-26T01:47:55.728Z,3.58
2023-10-26T01:50:29.255Z,5.57
2023-10-26T01:53:05.065Z,5.13
2023-10-26T01:55:38.103Z,3.13
2023-10-26T01:58:11.707Z,3.97
2023-10-26T02:00:44.919Z,3.38
2023-10-26T02:03:19.798Z,5.72
2023-10-26T02:05:53.125Z,4.15
2023-10-26T02:08:27.704Z,3.95
2023-10-26T02:11:00.977Z,3.05
2023-10-26T02:13:36.557Z,3.38
2023-10-26T02:16:10.637Z,3.90
2023-10-26T02:18:45.911Z,3.45
2023-10-26T02:21:19.536Z,5.75
2023-10-26T02:23:54.255Z,3.88
2023-10-26T02:26:27.606Z,4.10
2023-10-26T02:29:03.629Z,4.05
2023-10-26T02:31:36.960Z,3.78
2023-10-26T02:34:10.289Z,3.83
2023-10-26T02:36:44.533Z,4.93
2023-10-26T02:39:19.194Z,4.28
2023-10-26T02:41:52.427Z,5.82
2023-10-26T02:44:25.538Z,3.42
2023-10-26T02:46:58.800Z,5.32
2023-10-26T02:49:33.240Z,3.83
2023-10-26T02:52:07.467Z,3.05
2023-10-26T02:54:44.118Z,3.33
2023-10-26T02:57:17.777Z,3.95
2023-10-26T02:59:51.346Z,3.85
2023-10-26T03:02:24.900Z,3.30
2023-10-26T03:04:58.217Z,3.55
2023-10-26T03:07:31.983Z,5.22
2023-10-26T03:10:07.974Z,4.50
2023-10-26T03:12:42.222Z,3.83
2023-10-26T03:15:15.564Z,4.00
2023-10-26T03:17:49.580Z,5.85
2023-10-26T03:22:55.924Z,3.13
2023-10-26T03:25:31.012Z,4.22
2023-10-26T03:28:04.154Z,4.63
2023-10-26T03:30:38.385Z,6.15
2023-10-26T03:33:11.739Z,3.55
2023-10-26T03:35:44.908Z,3.63
2023-10-26T03:40:53.506Z,4.63
2023-10-26T03:43:26.846Z,4.30
2023-10-26T03:45:59.915Z,3.75
2023-10-26T03:48:33.478Z,3.80
2023-10-26T03:51:07.082Z,4.03
2023-10-26T03:53:40.692Z,4.75
2023-10-26T03:56:15.262Z,3.42
2023-10-26T03:58:49.206Z,4.47
2023-10-26T04:01:23.156Z,4.50
2023-10-26T04:03:56.504Z,4.53
2023-10-26T04:06:31.129Z,4.25
2023-10-26T04:09:04.573Z,4.72
2023-10-26T04:11:39.518Z,4.43
2023-10-26T04:14:13.353Z,4.40
2023-10-26T04:16:49.012Z,3.05
2023-10-26T04:19:22.329Z,3.30
2023-10-26T04:21:58.482Z,5.20
2023-10-26T04:24:31.668Z,3.95
2023-10-26T04:27:06.998Z,4.97
2023-10-26T04:29:40.244Z,4.43
2023-10-26T04:32:13.634Z,4.05
2023-10-26T04:34:47.473Z,4.72
2023-10-26T04:37:20.925Z,3.55
2023-10-26T04:39:53.952Z,4.18
2023-10-26T04:42:28.454Z,4.32
2023-10-26T04:45:01.784Z,3.95
2023-10-26T04:47:35.150Z,6.35
2023-10-26T04:50:09.821Z,3.97
2023-10-26T04:52:43.057Z,4.22
2023-10-26T04:55:16.553Z,3.30
2023-10-26T04:57:51.131Z,4.60
2023-10-26T05:00:24.440Z,4.32
2023-10-26T05:02:57.522Z,4.30
2023-10-26T05:05:31.372Z,4.22
2023-10-26T05:08:07.551Z,4.28
2023-10-26T05:10:41.766Z,3.97
2023-10-26T05:13:16.526Z,4.18
2023-10-26T05:15:49.990Z,5.45
2023-10-26T05:18:23.406Z,5.20
2023-10-26T05:20:56.636Z,4.20
2023-10-26T05:23:29.677Z,5.15
2023-10-26T05:28:37.822Z,5.75
2023-10-26T05:31:10.849Z,4.32
2023-10-26T05:38:52.151Z,4.97
2023-10-26T05:41:25.100Z,4.60
2023-10-26T05:46:32.675Z,4.47
2023-10-26T05:49:06.330Z,6.93
2023-10-26T05:51:39.648Z,5.22
2023-10-26T05:54:12.871Z,6.07
2023-10-26T05:56:46.255Z,5.32
2023-10-26T05:59:20.483Z,4.88
2023-10-26T06:01:53.669Z,4.72
2023-10-26T06:04:27.194Z,5.55
2023-10-26T06:07:00.259Z,4.80
2023-10-26T06:09:33.339Z,10.38
2023-10-26T06:12:06.905Z,7.55
2023-10-26T06:14:41.764Z,6.50
2023-10-26T06:17:15.360Z,6.50
2023-10-26T06:19:48.542Z,9.48
2023-10-26T06:22:21.722Z,7.28
2023-10-26T06:24:54.871Z,7.28
2023-10-26T06:27:28.359Z,7.20
2023-10-26T06:30:04.833Z,6.85
2023-10-26T06:32:37.848Z,8.30
2023-10-26T06:37:46.695Z,7.35
2023-10-26T06:40:20.184Z,8.60
2023-10-26T06:42:53.124Z,7.72
2023-10-26T06:48:00.265Z,9.05
2023-10-26T06:53:05.744Z,11.23
2023-10-26T06:55:38.605Z,8.05
2023-10-26T07:00:50.176Z,10.10
2023-10-26T07:03:26.417Z,10.60
2023-10-26T07:06:02.405Z,9.70
2023-10-26T07:08:35.722Z,10.90
2023-10-26T07:11:08.918Z,12.73
2023-10-26T07:13:41.870Z,12.27
2023-10-26T07:18:48.747Z,13.48
2023-10-26T07:21:21.898Z,14.55
2023-10-26T07:23:55.081Z,13.30
2023-10-26T07:26:28.181Z,16.73
2023-10-26T07:29:01.821Z,14.35
2023-10-26T07:31:36.148Z,15.15
2023-10-26T07:34:09.005Z,16.80
2023-10-26T07:39:48.372Z,15.63
2023-10-26T07:42:09.177Z,17.02
2023-10-26T07:44:42.464Z,15.75
2023-10-26T07:47:17.221Z,18.38
2023-10-26T07:49:50.156Z,17.55
2023-10-26T07:54:55.743Z,18.45
2023-10-26T07:57:28.575Z,18.30
2023-10-26T08:00:02.170Z,22.20
2023-10-26T08:02:47.229Z,22.30
2023-10-26T08:05:20.298Z,24.38
2023-10-26T08:07:53.682Z,20.83
2023-10-26T08:10:27.329Z,22.45
2023-10-26T08:13:00.700Z,23.67
2023-10-26T08:16:09.582Z,25.52
2023-10-26T08:18:28.237Z,22.75
2023-10-26T08:21:03.412Z,26.92
2023-10-26T08:23:36.890Z,27.08
2023-10-26T08:26:11.405Z,26.23
2023-10-26T08:28:44.213Z,29.88
2023-10-26T08:31:17.081Z,29.00
2023-10-26T08:33:51.721Z,25.70
2023-10-26T08:36:26.217Z,27.27
2023-10-26T08:38:59.111Z,23.13
2023-10-26T08:41:34.768Z,30.65
2023-10-26T08:44:08.149Z,26.67
2023-10-26T08:46:41.641Z,29.38
2023-10-26T08:49:17.373Z,28.52
2023-10-26T08:51:50.290Z,28.77
2023-10-26T08:56:55.784Z,33.22
2023-10-26T08:59:29.558Z,30.10
2023-10-26T09:02:02.602Z,28.10
2023-10-26T09:04:36.980Z,34.15
2023-10-26T09:07:09.989Z,28.05
2023-10-26T09:12:19.229Z,30.90
2023-10-26T09:15:01.562Z,33.05
2023-10-26T09:17:36.296Z,30.23
2023-10-26T09:20:30.222Z,30.83
2023-10-26T09:23:04.727Z,32.90
2023-10-26T09:28:12.327Z,33.28
2023-10-26T09:30:46.383Z,30.85
2023-10-26T09:33:26.608Z,32.67
2023-10-26T09:36:12.336Z,33.80
2023-10-26T09:38:45.985Z,28.35
2023-10-26T09:41:21.161Z,34.50
2023-10-26T09:43:54.008Z,30.27
2023-10-26T09:46:27.596Z,29.35
2023-10-26T09:49:00.663Z,30.80
2023-10-26T09:51:35.396Z,28.58
2023-10-26T09:54:09.911Z,32.17
2023-10-26T09:56:50.171Z,29.38
2023-10-26T09:59:24.128Z,30.88
2023-10-26T10:01:57.227Z,28.50
2023-10-26T10:04:38.542Z,30.65
2023-10-26T10:07:18.987Z,27.30
2023-10-26T10:10:08.470Z,28.42
2023-10-26T10:12:43.758Z,26.98
2023-10-26T10:15:40.070Z,27.52
2023-10-26T10:18:12.726Z,28.42
2023-10-26T10:20:48.901Z,28.65
2023-10-26T10:23:32.838Z,27.42
2023-10-26T10:26:24.005Z,27.38
2023-10-26T10:29:18.749Z,27.75
2023-10-26T10:31:51.450Z,27.77
2023-10-26T10:34:26.541Z,26.60
2023-10-26T10:37:16.217Z,25.92
2023-10-26T10:40:12.869Z,25.52
2023-10-26T10:42:48.869Z,20.88
2023-10-26T10:45:24.673Z,22.90
2023-10-26T10:47:57.668Z,23.25
2023-10-26T10:55:38.096Z,21.10
2023-10-26T10:58:11.395Z,20.92
2023-10-26T11:00:46.937Z,17.02
2023-10-26T11:03:20.347Z,18.67
2023-10-26T11:05:53.232Z,18.40
2023-10-26T11:08:27.405Z,14.65
2023-10-26T11:11:01.790Z,19.13
2023-10-26T11:13:34.727Z,16.40
2023-10-26T11:16:17.255Z,14.93
2023-10-26T11:18:50.078Z,11.65
2023-10-26T11:21:22.959Z,13.32
2023-10-26T11:23:55.864Z,13.88
2023-10-26T11:26:29.962Z,13.13
2023-10-26T11:29:05.136Z,10.95
2023-10-26T11:31:42.604Z,9.88
2023-10-26T11:34:15.673Z,11.57
2023-10-26T11:39:21.719Z,10.07
2023-10-26T11:41:56.675Z,9.80
2023-10-26T11:44:31.014Z,9.38
2023-10-26T11:47:04.216Z,10.00
2023-10-26T11:49:40.849Z,8.98
2023-10-26T11:52:14.128Z,9.30
2023-10-26T11:54:56.901Z,10.10
2023-10-26T11:57:31.238Z,8.75
2023-10-26T12:00:07.114Z,7.93
2023-10-26T12:02:45.662Z,8.07
2023-10-26T12:07:54.331Z,9.00
2023-10-26T12:10:27.903Z,9.50
2023-10-26T12:13:02.597Z,8.50
2023-10-26T12:15:37.267Z,9.23
2023-10-26T12:18:10.220Z,9.43
2023-10-26T12:20:43.159Z,8.13
2023-10-26T12:23:16.189Z,8.10
2023-10-26T12:25:49.405Z,9.95
2023-10-26T12:28:27.146Z,8.90
2023-10-26T12:31:02.555Z,9.15
2023-10-26T12:33:39.691Z,9.10
2023-10-26T12:36:13.288Z,8.25
2023-10-26T12:38:46.044Z,8.65
2023-10-26T12:41:19.143Z,11.13
2023-10-26T12:43:53.394Z,7.60
2023-10-26T12:46:26.229Z,8.10
2023-10-26T12:48:59.052Z,9.45
2023-10-26T12:51:32.065Z,9.00
2023-10-26T12:56:44.427Z,7.95
2023-10-26T12:59:18.604Z,8.80
2023-10-26T13:01:51.656Z,8.93
2023-10-26T13:06:58.600Z,8.38
2023-10-26T13:09:31.502Z,10.45
2023-10-26T13:12:05.218Z,8.32
2023-10-26T13:14:39.448Z,9.25
2023-10-26T13:17:12.910Z,8.60
2023-10-26T13:19:46.183Z,9.68
2023-10-26T13:22:19.704Z,8.48
2023-10-26T13:24:52.869Z,8.73
2023-10-26T13:27:26.758Z,8.85
2023-10-26T13:30:00.968Z,10.52
2023-10-26T13:32:33.870Z,10.88
2023-10-26T13:37:40.010Z,10.48
2023-10-26T13:40:13.458Z,10.50
2023-10-26T13:42:46.753Z,10.43
2023-10-26T13:45:23.332Z,8.75
2023-10-26T13:47:57.015Z,9.38
2023-10-26T13:53:02.712Z,11.20
2023-10-26T13:55:36.773Z,10.13
2023-10-26T13:58:09.895Z,12.30
2023-10-26T14:00:44.038Z,14.23
2023-10-26T14:03:16.916Z,10.23
2023-10-26T14:05:53.302Z,11.30
2023-10-26T14:08:33.068Z,11.85
2023-10-26T14:11:06.570Z,12.07
2023-10-26T14:13:40.696Z,10.50
2023-10-26T14:16:15.984Z,12.13
2023-10-26T14:18:49.271Z,13.27
2023-10-26T14:21:22.829Z,12.27
2023-10-26T14:23:55.563Z,10.82
2023-10-26T14:26:28.452Z,12.55
2023-10-26T14:29:01.758Z,11.38
2023-10-26T14:31:35.877Z,11.18
2023-10-26T14:34:08.782Z,12.15
2023-10-26T14:39:14.664Z,9.93
2023-10-26T14:41:47.615Z,10.43
2023-10-26T14:46:54.350Z,10.73
2023-10-26T14:49:27.516Z,11.10
2023-10-26T14:52:01.232Z,10.15
2023-10-26T14:54:34.182Z,12.82
2023-10-26T14:57:07.270Z,10.63
2023-10-26T14:59:40.997Z,13.77
2023-10-26T15:02:16.349Z,11.85
2023-10-26T15:04:50.921Z,12.88
2023-10-26T15:07:23.977Z,11.18
2023-10-26T15:12:49.809Z,10.52
2023-10-26T15:15:23.041Z,10.82
2023-10-26T15:17:57.854Z,13.73
2023-10-26T15:20:31.901Z,15.93
2023-10-26T15:23:05.053Z,14.80
2023-10-26T15:25:38.342Z,13.15
2023-10-26T15:28:11.320Z,15.10
2023-10-26T15:33:19.306Z,15.73
2023-10-26T15:35:53.029Z,20.88
2023-10-26T15:38:28.934Z,15.38
2023-10-26T15:41:04.414Z,17.55
2023-10-26T15:43:37.545Z,19.17
2023-10-26T15:46:11.029Z,17.40
2023-10-26T15:49:30.562Z,15.18
2023-10-26T15:51:38.570Z,16.38
2023-10-26T15:54:11.867Z,17.77
2023-10-26T15:56:45.190Z,18.20
2023-10-26T15:59:18.142Z,18.88
2023-10-26T16:04:25.609Z,18.55
2023-10-26T16:07:00.107Z,19.70
2023-10-26T16:09:35.690Z,23.60
2023-10-26T16:12:10.875Z,17.08
2023-10-26T16:14:44.415Z,18.17
2023-10-26T16:17:17.675Z,18.90
2023-10-26T16:22:25.012Z,21.27
2023-10-26T16:27:31.274Z,20.25
2023-10-26T16:30:04.889Z,19.80
2023-10-26T16:32:38.835Z,17.05
2023-10-26T16:35:13.637Z,20.67
2023-10-26T16:37:46.890Z,18.70
2023-10-26T16:40:20.184Z,18.25
2023-10-26T16:42:53.273Z,20.95
2023-10-26T16:45:26.595Z,18.90
2023-10-26T16:47:59.890Z,19.63
2023-10-26T16:50:34.268Z,16.80
2023-10-26T16:53:19.394Z,18.48
2023-10-26T16:56:01.393Z,18.77
2023-10-26T16:58:35.112Z,21.85
2023-10-26T17:01:11.296Z,18.08
2023-10-26T17:03:46.778Z,18.40
2023-10-26T17:06:21.762Z,17.52
2023-10-26T17:08:54.984Z,15.52
2023-10-26T17:11:28.151Z,18.27
2023-10-26T17:14:01.686Z,18.08
2023-10-26T17:16:34.815Z,18.48
2023-10-26T17:19:09.262Z,19.75
2023-10-26T17:21:43.800Z,20.13
2023-10-26T17:24:17.017Z,15.95
2023-10-26T17:26:50.989Z,21.05
2023-10-26T17:29:24.110Z,18.70
2023-10-26T17:31:57.405Z,21.30
2023-10-26T17:34:34.195Z,19.30
2023-10-26T17:37:09.375Z,19.67
2023-10-26T17:39:43.792Z,17.98
2023-10-26T17:42:17.244Z,18.27
2023-10-26T17:44:51.371Z,19.75
2023-10-26T17:47:24.872Z,17.88
2023-10-26T17:49:58.308Z,18.30
2023-10-26T17:52:35.934Z,19.13
2023-10-26T17:55:10.399Z,21.05
2023-10-26T17:57:45.718Z,17.05
2023-10-26T18:00:19.901Z,19.45
2023-10-26T18:02:53.650Z,19.20
2023-10-26T18:05:28.316Z,19.30
2023-10-26T18:08:02.904Z,19.30
2023-10-26T18:10:36.328Z,21.02
2023-10-26T18:13:09.306Z,20.48
2023-10-26T18:18:16.056Z,29.52
2023-10-26T18:20:59.968Z,20.90
2023-10-26T18:23:35.789Z,23.30
2023-10-26T18:26:10.345Z,22.95
2023-10-26T18:28:45.587Z,23.00
2023-10-26T18:31:21.867Z,22.13
2023-10-26T18:33:56.445Z,25.35
2023-10-26T18:36:29.635Z,25.83
2023-10-26T18:39:04.363Z,25.50
2023-10-26T18:41:37.569Z,26.27
2023-10-26T18:44:10.472Z,25.75
2023-10-26T18:49:17.392Z,23.55
2023-10-26T18:51:50.914Z,25.55
2023-10-26T18:54:25.193Z,24.63
2023-10-26T18:56:58.579Z,23.83
2023-10-26T18:59:31.732Z,26.30
2023-10-26T19:02:04.961Z,26.45
2023-10-26T19:04:38.008Z,24.05
2023-10-26T19:09:47.083Z,24.95
2023-10-26T19:12:20.766Z,26.77
2023-10-26T19:14:54.419Z,26.15
2023-10-26T19:17:27.631Z,27.00
2023-10-26T19:20:01.039Z,27.23
2023-10-26T19:22:34.857Z,26.42
2023-10-26T19:25:10.252Z,24.27
2023-10-26T19:27:45.284Z,25.90
2023-10-26T19:30:19.789Z,27.42
2023-10-26T19:32:53.273Z,24.65
2023-10-26T19:35:27.448Z,24.27
2023-10-26T19:38:00.509Z,23.70
2023-10-26T19:40:34.972Z,21.92
2023-10-26T19:43:08.413Z,23.38
2023-10-26T19:45:43.574Z,23.05
2023-10-26T19:48:17.767Z,23.30
2023-10-26T19:50:50.877Z,22.38
2023-10-26T19:53:23.922Z,24.02
2023-10-26T19:55:58.926Z,23.65
2023-10-26T19:58:32.019Z,24.90
2023-10-26T20:01:06.127Z,26.27
2023-10-26T20:03:39.016Z,21.35
2023-10-26T20:06:11.916Z,22.80
2023-10-26T20:08:45.055Z,21.83
2023-10-26T20:11:19.426Z,44.40
2023-10-26T20:13:53.510Z,23.20
2023-10-26T20:16:26.809Z,22.98
2023-10-26T20:19:01.015Z,25.02
2023-10-26T20:21:35.550Z,21.63
2023-10-26T20:24:10.498Z,21.90
2023-10-26T20:26:45.099Z,22.13
2023-10-26T20:29:18.699Z,24.80
2023-10-26T20:31:51.475Z,19.90
2023-10-26T20:34:25.382Z,19.92
2023-10-26T20:36:58.703Z,22.52
2023-10-26T20:39:31.873Z,26.05
2023-10-26T20:42:07.310Z,24.52
2023-10-26T20:44:40.683Z,26.67
2023-10-26T20:47:13.987Z,23.98
2023-10-26T20:49:49.371Z,20.63
2023-10-26T20:52:23.016Z,22.10
2023-10-26T20:54:56.861Z,20.85
2023-10-26T20:57:31.610Z,25.15
2023-10-26T21:00:05.611Z,22.23
2023-10-26T21:02:40.524Z,25.45
2023-10-26T21:05:13.416Z,23.58
2023-10-26T21:07:46.349Z,21.95
2023-10-26T21:10:19.626Z,24.70
2023-10-26T21:12:54.541Z,22.20
2023-10-26T21:15:27.706Z,22.67
2023-10-26T21:18:00.956Z,21.80
2023-10-26T21:20:35.881Z,25.02
2023-10-26T21:23:09.564Z,25.45
2023-10-26T21:25:44.142Z,25.98
2023-10-26T21:28:18.778Z,25.00
2023-10-26T21:30:54.206Z,23.25
2023-10-26T21:33:27.724Z,25.65
2023-10-26T21:36:00.834Z,21.38
2023-10-26T21:38:33.928Z,20.58
2023-10-26T21:41:07.546Z,21.83
2023-10-26T21:43:42.552Z,22.17
2023-10-26T21:46:15.973Z,22.02
2023-10-26T21:48:49.778Z,23.10
2023-10-26T21:51:23.540Z,22.45
2023-10-26T21:53:56.718Z,26.73
2023-10-26T21:59:04.140Z,20.48
2023-10-26T22:01:37.811Z,23.15
2023-10-26T22:04:21.942Z,23.25
2023-10-26T22:06:56.927Z,20.92
2023-10-26T22:09:33.580Z,23.45
2023-10-26T22:12:10.039Z,23.17
2023-10-26T22:14:45.468Z,22.02
2023-10-26T22:17:18.960Z,18.13
2023-10-26T22:19:53.084Z,21.10
2023-10-26T22:22:26.607Z,20.60
2023-10-26T22:25:00.348Z,24.20
2023-10-26T22:27:34.349Z,23.50
2023-10-26T22:30:11.814Z,18.50
2023-10-26T22:32:45.315Z,20.48
2023-10-26T22:35:18.929Z,24.35
2023-10-26T22:37:52.796Z,25.70
2023-10-26T22:40:26.658Z,22.00
2023-10-26T22:43:00.267Z,21.30
2023-10-26T22:45:34.825Z,19.15
2023-10-26T22:48:08.820Z,22.13
2023-10-26T22:50:42.397Z,17.58
2023-10-26T22:53:16.946Z,18.58
2023-10-26T22:55:51.225Z,21.13
2023-10-26T22:58:26.078Z,22.67
2023-10-26T23:01:05.997Z,23.30
2023-10-26T23:03:39.168Z,18.98
2023-10-26T23:06:12.792Z,18.63
2023-10-26T23:08:46.284Z,17.83
2023-10-26T23:11:22.961Z,18.80
2023-10-26T23:13:56.326Z,19.10
2023-10-26T23:16:31.429Z,17.73
2023-10-26T23:19:06.458Z,19.05
2023-10-26T23:21:39.708Z,19.60
2023-10-26T23:24:13.393Z,18.48
2023-10-26T23:26:48.828Z,18.88
2023-10-26T23:29:29.218Z,19.48
2023-10-26T23:32:05.364Z,23.98
2023-10-26T23:34:39.151Z,21.52
2023-10-26T23:37:12.828Z,18.73
2023-10-26T23:39:46.762Z,16.75
2023-10-26T23:42:19.842Z,16.05
2023-10-26T23:44:53.438Z,20.52
2023-10-26T23:47:29.351Z,17.40
2023-10-26T23:50:02.884Z,15.60
2023-10-26T23:52:39.111Z,22.15
2023-10-26T23:55:13.123Z,16.63
2023-10-26T23:57:46.182Z,16.40
